Camden, NC (27921)

7:29 AM EDT on October 25, 2014 (GMT -0400)
KNCELIZA3 | Change Station
CLOSE
Current Station
Personal Weather Station
Location: Elizabeth City, NC
Elevation: 12 ft
Nearby Weather Stations

Elev 12 ft 36.24 °N, 76.22 °W | Updated 2 seconds ago

Clear
Clear
42.9 °F
Feels Like 43 °F
N
0.0
Wind Variable Wind from West
Gusts 0.0 mph

Today
High -- | Low -- °F
--% Chance of Precip.
Yesterday
High -- | Low -- °F
Precip. -- in
7:20 AM 6:15 PM
Waxing Crescent, 3% visible
Pressure 29.98 in
Visibility 10.0 miles
Clouds Clear
Windchill 43 °F
Dew Point 42 °F
Humidity 98%
Rainfall 0.00 in
Snow Depth Not available.
UV 0 out of 12
Pollen 1.40 out of 12
Air Quality Not available.
Flu Activity Local Activity
METAR KECG 251054Z 29003KT 10SM CLR 08/06 A2998 RMK AO2 SLP152 T00830056

More Conditions Fewer Conditions

Pressure 29.98 in
Visibility 10.0 miles
Clouds Clear
Windchill 43 °F
Dew Point 42 °F
Humidity 98%
Rainfall 0.00 in
Snow Depth Not available.
UV 0 out of 12
Pollen 1.40 out of 12
Air Quality Not available.
Flu Activity Local Activity
METAR KECG 251054Z 29003KT 10SM CLR 08/06 A2998 RMK AO2 SLP152 T00830056

More Conditions Fewer Conditions

10-Day Weather Forecast

Almanac

Astronomy

Oct. 25, 2014 Rise Set
Actual Time 7:20 AM EDT 6:15 PM EDT
Civil Twilight 6:54 AM EDT 6:42 PM EDT
Nautical Twilight 6:24 AM EDT 7:12 PM EDT
Astronomical Twilight 5:54 AM EDT 7:42 PM EDT
Moon 8:55 AM EDT 7:39 PM EDT
Length of Visible Light 11h 47m
Length of Day
10h 55m
Tomorrow will be 2m 6s shorter.
Waxing Crescent, 3% of the Moon is Illuminated
Today
Waxing Crescent
Oct 30
First Quarter
Nov 6
Full
Nov 14
Last Quarter
Nov 22
New

Today's Extremes

State Highs State Lows

Community

WunderPhotos

Upload Photos

1,764,810 photos uploaded!

Nearby

Snow Depth

Station Depth Elevation
No new snow has been reported.

Earthquake Activity

City Distance Mag. Time & Date
No recent earthquake activity has been reported nearby.
Minimum magnitude displayed is 2.5.

Coastal Water Temperatures

Place Temperature
Oregon Inlet Marina, NC 64.0 °F
Duck Pier, NC 64.9 °F
Hatteras, NC 64.9 °F
Money Point, VA 64.9 °F
Sewells Point, VA 63.0 °F
Chesapeake Bay Bridge Tunnel, VA 63.0 °F

Nearby Weather Stations